createdAt,value
2022-12-14T00:01:21.490Z,18.60
2022-12-14T00:03:48.968Z,23.73
2022-12-14T00:06:18.926Z,24.25
2022-12-14T00:08:48.904Z,23.13
2022-12-14T00:11:16.185Z,20.13
2022-12-14T00:13:44.014Z,25.55
2022-12-14T00:16:17.611Z,21.95
2022-12-14T00:18:48.622Z,24.17
2022-12-14T00:21:15.392Z,23.33
2022-12-14T00:23:45.252Z,20.58
2022-12-14T00:26:18.832Z,26.30
2022-12-14T00:28:46.749Z,22.50
2022-12-14T00:31:13.716Z,24.65
2022-12-14T00:33:40.664Z,25.73
2022-12-14T00:36:09.450Z,23.27
2022-12-14T00:38:36.959Z,22.23
2022-12-14T00:41:04.684Z,27.45
2022-12-14T00:43:32.299Z,23.10
2022-12-14T00:45:58.927Z,21.42
2022-12-14T00:48:26.804Z,28.27
2022-12-14T00:50:55.072Z,24.05
2022-12-14T00:53:23.101Z,21.40
2022-12-14T00:55:50.583Z,26.35
2022-12-14T00:58:20.071Z,24.45
2022-12-14T01:00:47.453Z,23.80
2022-12-14T01:03:14.589Z,24.35
2022-12-14T01:05:41.131Z,24.35
2022-12-14T01:08:08.048Z,21.67
2022-12-14T01:10:35.005Z,18.90
2022-12-14T01:13:01.519Z,20.23
2022-12-14T01:15:28.284Z,22.63
2022-12-14T01:17:54.855Z,26.35
2022-12-14T01:20:21.370Z,23.20
2022-12-14T01:22:48.008Z,25.50
2022-12-14T01:25:14.550Z,21.95
2022-12-14T01:27:41.013Z,20.73
2022-12-14T01:30:07.828Z,21.55
2022-12-14T01:32:34.781Z,18.88
2022-12-14T01:35:01.543Z,18.90
2022-12-14T01:37:28.859Z,25.23
2022-12-14T01:39:55.894Z,18.40
2022-12-14T01:42:22.673Z,19.52
2022-12-14T01:44:58.206Z,21.98
2022-12-14T01:47:30.988Z,18.42
2022-12-14T01:50:00.631Z,17.05
2022-12-14T01:52:43.972Z,17.80
2022-12-14T01:55:24.883Z,20.05
2022-12-14T01:58:22.425Z,20.55
2022-12-14T02:00:52.535Z,18.02
2022-12-14T02:03:27.221Z,20.42
2022-12-14T02:05:59.465Z,17.90
2022-12-14T02:08:26.634Z,16.70
2022-12-14T02:10:55.317Z,16.35
2022-12-14T02:13:29.406Z,22.70
2022-12-14T02:15:56.393Z,17.40
2022-12-14T02:18:26.028Z,16.17
2022-12-14T02:21:15.549Z,20.92
2022-12-14T02:23:54.038Z,17.17
2022-12-14T02:27:09.555Z,19.27
2022-12-14T02:29:45.983Z,12.65
2022-12-14T02:32:44.543Z,24.08
2022-12-14T02:35:42.442Z,20.77
2022-12-14T02:38:17.206Z,15.07
2022-12-14T02:40:52.483Z,13.10
2022-12-14T02:43:25.257Z,20.85
2022-12-14T02:46:13.655Z,18.25
2022-12-14T02:48:47.930Z,21.88
2022-12-14T02:51:20.598Z,21.17
2022-12-14T02:54:13.844Z,19.15
2022-12-14T02:56:51.604Z,17.92
2022-12-14T02:59:19.359Z,15.73
2022-12-14T03:01:50.029Z,19.98
2022-12-14T03:04:18.608Z,18.08
2022-12-14T03:06:59.386Z,16.25
2022-12-14T03:09:29.081Z,23.33
2022-12-14T03:12:01.049Z,18.35
2022-12-14T03:14:34.348Z,15.35
2022-12-14T03:17:07.548Z,22.45
2022-12-14T03:19:42.402Z,15.48
2022-12-14T03:22:15.281Z,20.13
2022-12-14T03:24:45.474Z,19.92
2022-12-14T03:27:18.520Z,19.63
2022-12-14T03:29:53.154Z,21.70
2022-12-14T03:32:24.650Z,17.58
2022-12-14T03:35:18.657Z,16.88
2022-12-14T03:37:57.729Z,19.27
2022-12-14T03:40:33.729Z,17.45
2022-12-14T03:43:15.295Z,17.15
2022-12-14T03:45:53.290Z,16.13
2022-12-14T03:48:32.815Z,20.95
2022-12-14T03:51:16.316Z,17.30
2022-12-14T03:54:19.209Z,18.95
2022-12-14T03:57:13.977Z,20.73
2022-12-14T03:59:53.801Z,13.40
2022-12-14T04:02:37.604Z,16.85
2022-12-14T04:05:14.805Z,13.43
2022-12-14T04:08:03.822Z,15.30
2022-12-14T04:10:57.073Z,17.80
2022-12-14T04:13:49.154Z,20.40
2022-12-14T04:16:39.132Z,16.83
2022-12-14T04:19:11.038Z,15.07
2022-12-14T04:21:44.510Z,14.40
2022-12-14T04:24:39.754Z,18.20
2022-12-14T04:27:20.489Z,17.35
2022-12-14T04:29:56.874Z,17.25
2022-12-14T04:32:32.184Z,17.85
2022-12-14T04:35:09.404Z,19.90
2022-12-14T04:37:38.780Z,21.42
2022-12-14T04:40:10.561Z,16.42
2022-12-14T04:43:02.772Z,12.13
2022-12-14T04:45:43.329Z,18.40
2022-12-14T04:48:17.479Z,16.05
2022-12-14T04:50:52.515Z,16.90
2022-12-14T04:53:25.537Z,12.10
2022-12-14T04:56:01.873Z,19.02
2022-12-14T04:58:30.559Z,13.35
2022-12-14T05:01:29.200Z,13.93
2022-12-14T05:04:34.526Z,13.40
2022-12-14T05:07:20.966Z,13.85
2022-12-14T05:10:00.194Z,13.68
2022-12-14T05:12:38.976Z,17.95
2022-12-14T05:15:19.967Z,11.02
2022-12-14T05:17:47.265Z,15.30
2022-12-14T05:20:17.211Z,14.70
2022-12-14T05:22:44.575Z,14.38
2022-12-14T05:25:11.631Z,12.68
2022-12-14T05:27:38.503Z,13.60
2022-12-14T05:30:06.743Z,16.58
2022-12-14T05:32:33.851Z,14.52
2022-12-14T05:35:00.448Z,11.95
2022-12-14T05:37:27.063Z,12.32
2022-12-14T05:39:54.529Z,13.27
2022-12-14T05:42:21.487Z,10.77
2022-12-14T05:44:48.045Z,13.88
2022-12-14T05:47:15.483Z,13.32
2022-12-14T05:49:42.041Z,16.05
2022-12-14T05:52:08.692Z,13.25
2022-12-14T05:54:35.258Z,12.27
2022-12-14T05:57:01.832Z,12.50
2022-12-14T05:59:28.462Z,15.43
2022-12-14T06:01:55.092Z,15.25
2022-12-14T06:04:21.808Z,13.40
2022-12-14T06:06:48.469Z,15.43
2022-12-14T06:09:16.246Z,11.23
2022-12-14T06:11:44.347Z,12.52
2022-12-14T06:14:11.957Z,11.80
2022-12-14T06:16:42.923Z,12.70
2022-12-14T06:19:10.710Z,10.57
2022-12-14T06:21:39.225Z,10.68
2022-12-14T06:24:07.123Z,11.85
2022-12-14T06:26:40.842Z,12.00
2022-12-14T06:29:10.502Z,9.52
2022-12-14T06:31:38.220Z,12.82
2022-12-14T06:34:04.823Z,10.65
2022-12-14T06:36:34.519Z,11.32
2022-12-14T06:39:07.735Z,13.55
2022-12-14T06:41:34.993Z,11.77
2022-12-14T06:44:06.825Z,10.20
2022-12-14T06:46:34.079Z,6.90
2022-12-14T06:49:00.632Z,11.85
2022-12-14T06:51:27.594Z,12.73
2022-12-14T06:53:55.975Z,10.73
2022-12-14T06:56:24.528Z,9.02
2022-12-14T06:58:52.600Z,10.05
2022-12-14T07:01:21.151Z,10.95
2022-12-14T07:03:49.946Z,13.07
2022-12-14T07:06:17.056Z,11.27
2022-12-14T07:08:44.005Z,12.02
2022-12-14T07:11:13.262Z,17.55
2022-12-14T07:13:40.493Z,13.65
2022-12-14T07:16:08.325Z,13.52
2022-12-14T07:18:34.938Z,11.18
2022-12-14T07:21:07.416Z,10.65
2022-12-14T07:23:37.263Z,10.10
2022-12-14T07:26:16.838Z,10.35
2022-12-14T07:28:44.599Z,10.02
2022-12-14T07:31:19.941Z,15.68
2022-12-14T07:33:46.815Z,13.77
2022-12-14T07:36:18.457Z,19.08
2022-12-14T07:38:46.824Z,19.73
2022-12-14T07:41:22.039Z,9.10
2022-12-14T07:43:50.530Z,14.90
2022-12-14T07:46:23.285Z,13.35
2022-12-14T07:48:52.352Z,10.60
2022-12-14T07:51:21.715Z,11.05
2022-12-14T07:53:49.246Z,14.20
2022-12-14T07:56:19.106Z,16.50
2022-12-14T07:58:45.737Z,14.57
2022-12-14T08:01:13.869Z,10.43
2022-12-14T08:03:42.294Z,9.77
2022-12-14T08:06:10.655Z,12.65
2022-12-14T08:08:37.633Z,19.80
2022-12-14T08:11:04.814Z,13.57
2022-12-14T08:13:32.664Z,16.52
2022-12-14T08:16:04.955Z,13.10
2022-12-14T08:18:33.290Z,15.90
2022-12-14T08:21:00.982Z,13.90
2022-12-14T08:23:28.200Z,10.73
2022-12-14T08:25:56.045Z,11.95
2022-12-14T08:28:23.246Z,10.77
2022-12-14T08:30:50.724Z,15.70
2022-12-14T08:33:18.708Z,11.57
2022-12-14T08:35:45.736Z,14.68
2022-12-14T08:38:12.240Z,11.68
2022-12-14T08:40:40.127Z,10.43
2022-12-14T08:43:09.122Z,10.35
2022-12-14T08:45:36.324Z,9.98
2022-12-14T08:48:03.569Z,8.30
2022-12-14T08:50:30.182Z,7.53
2022-12-14T08:52:56.869Z,10.68
2022-12-14T08:55:28.262Z,8.00
2022-12-14T08:57:56.983Z,10.98
2022-12-14T09:00:23.655Z,10.40
2022-12-14T09:02:51.780Z,15.10
2022-12-14T09:05:18.514Z,12.02
2022-12-14T09:07:45.318Z,11.57
2022-12-14T09:10:12.867Z,11.80
2022-12-14T09:12:39.488Z,11.05
2022-12-14T09:15:06.899Z,11.27
2022-12-14T09:17:34.412Z,13.60
2022-12-14T09:20:01.000Z,15.20
2022-12-14T09:22:27.671Z,12.63
2022-12-14T09:24:54.558Z,9.57
2022-12-14T09:27:22.612Z,12.10
2022-12-14T09:29:52.228Z,10.38
2022-12-14T09:32:18.933Z,11.18
2022-12-14T09:34:45.677Z,11.20
2022-12-14T09:37:12.944Z,9.60
2022-12-14T09:39:39.691Z,11.52
2022-12-14T09:42:32.237Z,16.27
2022-12-14T09:45:20.153Z,13.68
2022-12-14T09:48:10.426Z,14.52
2022-12-14T09:50:38.684Z,12.70
2022-12-14T09:53:13.028Z,12.43
2022-12-14T09:55:46.086Z,9.63
2022-12-14T09:58:32.871Z,11.60
2022-12-14T10:01:24.669Z,11.70
2022-12-14T10:04:00.362Z,13.95
2022-12-14T10:06:50.449Z,16.60
2022-12-14T10:09:34.551Z,20.15
2022-12-14T10:12:41.957Z,16.45
2022-12-14T10:15:24.692Z,12.93
2022-12-14T10:18:33.868Z,10.60
2022-12-14T10:21:01.111Z,36.17
2022-12-14T10:23:27.853Z,15.98
2022-12-14T10:26:01.002Z,12.68
2022-12-14T10:28:36.275Z,21.70
2022-12-14T10:31:07.888Z,13.50
2022-12-14T10:33:34.517Z,14.98
2022-12-14T10:36:30.329Z,18.98
2022-12-14T10:39:02.313Z,13.23
2022-12-14T10:42:16.720Z,12.27
2022-12-14T10:48:05.877Z,12.77
2022-12-14T10:50:57.722Z,12.25
2022-12-14T10:53:35.709Z,17.73
2022-12-14T10:56:14.062Z,18.80
2022-12-14T10:58:40.677Z,13.80
2022-12-14T11:01:13.638Z,22.00
2022-12-14T11:03:42.277Z,16.95
2022-12-14T11:06:19.118Z,15.30
2022-12-14T11:08:48.910Z,23.23
2022-12-14T11:11:19.767Z,13.75
2022-12-14T11:14:10.017Z,14.40
2022-12-14T11:16:40.113Z,17.45
2022-12-14T11:19:17.278Z,9.93
2022-12-14T11:21:44.721Z,15.43
2022-12-14T11:24:28.747Z,11.27
2022-12-14T11:27:00.474Z,9.82
2022-12-14T11:29:36.709Z,12.43
2022-12-14T11:32:04.730Z,14.77
2022-12-14T11:34:38.179Z,10.70
2022-12-14T11:37:22.060Z,12.95
2022-12-14T11:40:05.474Z,12.45
2022-12-14T11:42:33.389Z,13.50
2022-12-14T11:45:28.560Z,11.48
2022-12-14T11:48:13.455Z,11.63
2022-12-14T11:50:41.191Z,11.05
2022-12-14T11:53:16.042Z,8.57
2022-12-14T11:55:47.712Z,14.15
2022-12-14T11:58:25.371Z,13.05
2022-12-14T12:00:58.623Z,12.23
2022-12-14T12:03:35.243Z,16.48
2022-12-14T12:06:07.168Z,11.65
2022-12-14T12:08:37.487Z,13.40
2022-12-14T12:11:14.925Z,13.55
2022-12-14T12:13:45.766Z,15.05
2022-12-14T12:16:21.568Z,13.43
2022-12-14T12:18:56.556Z,17.65
2022-12-14T12:21:31.601Z,15.32
2022-12-14T12:24:23.419Z,14.27
2022-12-14T12:26:53.892Z,14.95
2022-12-14T12:29:37.432Z,15.13
2022-12-14T12:32:10.360Z,13.93
2022-12-14T12:34:46.161Z,12.50
2022-12-14T12:37:28.270Z,19.10
2022-12-14T12:40:00.573Z,17.88
2022-12-14T12:42:46.710Z,14.25
2022-12-14T12:45:25.708Z,15.45
2022-12-14T12:48:31.355Z,17.95
2022-12-14T12:51:03.963Z,16.90
2022-12-14T12:53:44.032Z,16.02
2022-12-14T12:56:21.846Z,26.23
2022-12-14T12:58:52.853Z,19.23
2022-12-14T13:01:51.202Z,16.40
2022-12-14T13:04:28.027Z,23.75
2022-12-14T13:07:03.612Z,17.55
2022-12-14T13:09:36.312Z,20.40
2022-12-14T13:12:05.453Z,17.67
2022-12-14T13:14:38.616Z,17.55
2022-12-14T13:17:14.299Z,18.42
2022-12-14T13:19:51.001Z,18.08
2022-12-14T13:22:26.670Z,16.77
2022-12-14T13:24:59.607Z,22.67
2022-12-14T13:27:50.705Z,17.77
2022-12-14T13:30:41.935Z,20.63
2022-12-14T13:33:20.715Z,17.67
2022-12-14T13:35:50.157Z,21.90
2022-12-14T13:38:56.872Z,18.40
2022-12-14T13:41:50.703Z,19.58
2022-12-14T13:44:17.165Z,18.73
2022-12-14T13:46:43.946Z,19.80
2022-12-14T13:49:21.197Z,15.55
2022-12-14T13:51:50.454Z,19.90
2022-12-14T13:54:40.738Z,21.92
2022-12-14T13:57:09.169Z,22.13
2022-12-14T13:59:40.353Z,15.32
2022-12-14T14:02:29.707Z,18.27
2022-12-14T14:05:14.896Z,18.77
2022-12-14T14:08:01.663Z,18.30
2022-12-14T14:10:37.182Z,20.83
2022-12-14T14:13:28.410Z,19.70
2022-12-14T14:16:26.996Z,19.95
2022-12-14T14:19:10.267Z,23.38
2022-12-14T14:24:56.897Z,24.35
2022-12-14T14:27:27.460Z,22.63
2022-12-14T14:29:55.355Z,29.08
2022-12-14T14:32:38.484Z,22.52
2022-12-14T14:35:24.914Z,24.65
2022-12-14T14:38:01.871Z,20.30
2022-12-14T14:40:51.331Z,26.40
2022-12-14T14:43:37.573Z,31.02
2022-12-14T14:46:07.287Z,25.05
2022-12-14T14:48:54.510Z,20.25
2022-12-14T14:51:26.405Z,24.52
2022-12-14T14:54:44.802Z,34.70
2022-12-14T14:57:43.130Z,37.65
2022-12-14T15:00:11.234Z,39.55
2022-12-14T15:02:41.771Z,37.13
2022-12-14T15:05:41.560Z,40.45
2022-12-14T15:08:05.307Z,32.47
2022-12-14T15:10:41.873Z,31.05
2022-12-14T15:13:19.118Z,26.35
2022-12-14T15:15:48.387Z,26.83
2022-12-14T15:18:14.948Z,26.58
2022-12-14T15:20:54.464Z,28.83
2022-12-14T15:23:21.894Z,26.77
2022-12-14T15:26:00.534Z,27.25
2022-12-14T15:28:28.783Z,26.17
2022-12-14T15:30:58.137Z,26.20
2022-12-14T15:33:29.396Z,26.63
2022-12-14T15:36:04.904Z,29.83
2022-12-14T15:38:33.447Z,25.45
2022-12-14T15:41:05.791Z,25.60
2022-12-14T15:43:33.913Z,24.77
2022-12-14T15:46:04.728Z,22.25
2022-12-14T15:48:34.749Z,25.10
2022-12-14T15:51:07.405Z,24.65
2022-12-14T15:53:37.435Z,29.25
2022-12-14T15:56:22.452Z,29.58
2022-12-14T15:58:50.500Z,21.90
2022-12-14T16:01:27.402Z,21.90
2022-12-14T16:03:56.678Z,24.88
2022-12-14T16:06:26.677Z,23.80
2022-12-14T16:09:05.234Z,36.30
2022-12-14T16:11:37.556Z,32.97
2022-12-14T16:14:31.470Z,26.83
2022-12-14T16:16:59.139Z,28.92
2022-12-14T16:19:33.658Z,26.45
2022-12-14T16:22:09.134Z,26.42
2022-12-14T16:24:37.449Z,47.85
2022-12-14T16:27:04.703Z,40.35
2022-12-14T16:29:33.194Z,33.92
2022-12-14T16:32:05.343Z,24.58
2022-12-14T16:34:33.405Z,26.58
2022-12-14T16:37:31.557Z,28.73
2022-12-14T16:39:52.805Z,31.08
2022-12-14T16:42:24.804Z,24.52
2022-12-14T16:44:55.070Z,29.73
2022-12-14T16:47:29.012Z,26.52
2022-12-14T16:50:01.827Z,25.90
2022-12-14T16:52:36.505Z,25.55
2022-12-14T16:55:20.582Z,25.20
2022-12-14T16:57:56.107Z,23.95
2022-12-14T17:00:27.116Z,27.58
2022-12-14T17:02:59.878Z,32.10
2022-12-14T17:05:32.910Z,26.13
2022-12-14T17:08:00.094Z,29.63
2022-12-14T17:10:27.142Z,31.23
2022-12-14T17:12:58.911Z,30.83
2022-12-14T17:15:28.391Z,29.33
2022-12-14T17:17:57.441Z,25.70
2022-12-14T17:20:27.529Z,29.52
2022-12-14T17:22:58.129Z,31.20
2022-12-14T17:25:28.751Z,28.10
2022-12-14T17:27:55.966Z,34.00
2022-12-14T17:30:24.160Z,28.27
2022-12-14T17:32:53.341Z,28.33
2022-12-14T17:35:26.476Z,29.90
2022-12-14T17:37:53.682Z,26.52
2022-12-14T17:40:20.333Z,27.75
2022-12-14T17:42:56.148Z,28.27
2022-12-14T17:45:27.128Z,27.15
2022-12-14T17:47:54.521Z,26.63
2022-12-14T17:50:22.606Z,32.05
2022-12-14T17:52:50.335Z,26.02
2022-12-14T17:55:18.090Z,36.67
2022-12-14T17:57:46.105Z,32.25
2022-12-14T18:00:46.891Z,28.88
2022-12-14T18:03:15.961Z,32.05
2022-12-14T18:05:48.369Z,29.38
2022-12-14T18:08:17.030Z,32.25
2022-12-14T18:10:43.933Z,30.48
2022-12-14T18:13:11.987Z,28.73
2022-12-14T18:15:41.796Z,33.88
2022-12-14T18:18:08.622Z,30.05
2022-12-14T18:20:36.195Z,31.13
2022-12-14T18:23:02.765Z,43.35
2022-12-14T18:25:29.308Z,34.78
2022-12-14T18:27:56.354Z,31.85
2022-12-14T18:30:23.046Z,31.90
2022-12-14T18:32:49.908Z,38.17
2022-12-14T18:35:26.034Z,37.20
2022-12-14T18:37:52.669Z,37.80
2022-12-14T18:40:25.846Z,33.55
2022-12-14T18:42:52.857Z,47.30
2022-12-14T18:45:34.963Z,42.38
2022-12-14T18:48:01.969Z,36.13
2022-12-14T18:50:29.184Z,38.97
2022-12-14T18:52:57.263Z,38.38
2022-12-14T18:55:29.471Z,36.13
2022-12-14T18:57:59.631Z,36.00
2022-12-14T19:00:30.161Z,35.58
2022-12-14T19:02:58.380Z,30.15
2022-12-14T19:05:26.456Z,34.05
2022-12-14T19:07:54.314Z,31.70
2022-12-14T19:10:24.086Z,29.08
2022-12-14T19:12:51.214Z,30.95
2022-12-14T19:15:30.137Z,28.55
2022-12-14T19:17:57.091Z,27.38
2022-12-14T19:20:25.146Z,33.55
2022-12-14T19:22:54.427Z,30.05
2022-12-14T19:25:24.748Z,27.33
2022-12-14T19:30:39.922Z,26.13
2022-12-14T19:33:06.751Z,34.45
2022-12-14T19:35:33.294Z,38.33
2022-12-14T19:38:00.116Z,33.30
2022-12-14T19:40:26.738Z,34.78
2022-12-14T19:42:54.064Z,39.28
2022-12-14T19:45:20.665Z,34.35
2022-12-14T19:47:47.583Z,40.72
2022-12-14T19:50:15.455Z,38.10
2022-12-14T19:52:42.918Z,39.03
2022-12-14T19:55:11.368Z,27.92
2022-12-14T19:57:39.461Z,34.53
2022-12-14T20:00:08.079Z,34.35
2022-12-14T20:02:38.609Z,34.08
2022-12-14T20:05:06.153Z,30.02
2022-12-14T20:07:32.822Z,24.92
2022-12-14T20:09:59.644Z,30.17
2022-12-14T20:12:26.716Z,32.65
2022-12-14T20:14:53.319Z,35.20
2022-12-14T20:17:20.008Z,28.25
2022-12-14T20:19:46.609Z,31.85
2022-12-14T20:22:14.857Z,31.70
2022-12-14T20:24:42.392Z,33.97
2022-12-14T20:27:09.083Z,29.10
2022-12-14T20:29:40.400Z,39.33
2022-12-14T20:32:07.033Z,27.63
2022-12-14T20:34:34.020Z,27.25
2022-12-14T20:37:00.580Z,29.67
2022-12-14T20:39:27.068Z,28.88
2022-12-14T20:41:53.587Z,34.97
2022-12-14T20:44:20.231Z,26.73
2022-12-14T20:46:47.013Z,34.38
2022-12-14T20:49:19.183Z,32.08
2022-12-14T20:51:47.360Z,31.77
2022-12-14T20:54:17.039Z,30.27
2022-12-14T20:56:45.101Z,28.77
2022-12-14T20:59:16.149Z,33.67
2022-12-14T21:01:43.778Z,32.33
2022-12-14T21:04:10.509Z,29.00
2022-12-14T21:06:39.675Z,26.92
2022-12-14T21:09:11.513Z,26.15
2022-12-14T21:12:07.235Z,35.88
2022-12-14T21:14:46.921Z,28.58
2022-12-14T21:17:15.155Z,30.88
2022-12-14T21:19:42.091Z,34.83
2022-12-14T21:22:12.905Z,40.63
2022-12-14T21:27:28.314Z,34.75
2022-12-14T21:29:55.007Z,29.23
2022-12-14T21:32:22.494Z,33.50
2022-12-14T21:34:49.800Z,30.52
2022-12-14T21:37:16.843Z,26.02
2022-12-14T21:39:51.864Z,26.88
2022-12-14T21:42:21.982Z,32.83
2022-12-14T21:44:50.157Z,29.17
2022-12-14T21:47:20.362Z,33.67
2022-12-14T21:49:47.644Z,27.98
2022-12-14T21:52:23.224Z,28.15
2022-12-14T21:54:50.536Z,26.63
2022-12-14T21:57:42.735Z,24.92
2022-12-14T22:00:10.900Z,25.45
2022-12-14T22:02:42.108Z,28.65
2022-12-14T22:05:10.040Z,32.17
2022-12-14T22:07:36.782Z,27.70
2022-12-14T22:10:03.819Z,28.38
2022-12-14T22:12:30.542Z,28.77
2022-12-14T22:14:57.331Z,28.33
2022-12-14T22:17:24.029Z,24.98
2022-12-14T22:19:52.079Z,25.45
2022-12-14T22:22:18.986Z,27.10
2022-12-14T22:24:48.644Z,29.13
2022-12-14T22:27:15.340Z,27.17
2022-12-14T22:29:41.954Z,27.92
2022-12-14T22:32:11.953Z,32.83
2022-12-14T22:34:38.781Z,24.90
2022-12-14T22:37:05.542Z,23.13
2022-12-14T22:39:32.123Z,27.63
2022-12-14T22:41:59.074Z,28.20
2022-12-14T22:44:25.785Z,32.05
2022-12-14T22:46:52.799Z,29.95
2022-12-14T22:49:19.837Z,34.72
2022-12-14T22:51:46.583Z,28.30
2022-12-14T22:54:22.588Z,22.20
2022-12-14T22:57:04.228Z,26.75
2022-12-14T22:59:38.844Z,22.60
2022-12-14T23:02:05.839Z,25.67
2022-12-14T23:04:33.147Z,26.75
2022-12-14T23:06:59.730Z,26.80
2022-12-14T23:09:45.293Z,26.90
2022-12-14T23:12:30.396Z,24.27
2022-12-14T23:15:15.815Z,28.83
2022-12-14T23:18:01.441Z,25.33
2022-12-14T23:20:46.720Z,27.40
2022-12-14T23:23:32.085Z,26.98
2022-12-14T23:26:35.432Z,27.40
2022-12-14T23:29:20.646Z,25.20
2022-12-14T23:32:05.868Z,25.77
2022-12-14T23:34:51.093Z,30.73
2022-12-14T23:37:36.073Z,25.75
2022-12-14T23:40:21.395Z,27.17
2022-12-14T23:43:06.670Z,28.48
2022-12-14T23:45:51.715Z,25.17
2022-12-14T23:48:37.105Z,25.60
2022-12-14T23:51:22.100Z,25.63
2022-12-14T23:54:07.520Z,23.17
2022-12-14T23:56:54.080Z,23.30
2022-12-14T23:59:39.226Z,28.20
